Aviation Digital Data Service (ADDS)

Output produced by METARs form (1017 UTC 22 November 2014)
found at http://aviationweather.gov/adds/metars/
 
KMHT 220858Z 2209/2306 VRB03KT P6SM SKC 
     FM221500 23009KT P6SM SCT150 
     FM222200 22008KT P6SM BKN080